Weather at Ellisras Matimba Airport

Public forecast

Using degrees Celsius for public forecast. Weather courtesy of forecast.io.

Closest aviation weather report (METAR) to Ellisras Matimba Airport

Closest report is Polokwane International Airport, 97.5 nm (180.6 km) E. Retrieved 2021/05/18 06:00 UTC (43 minutes ago):

FAPP 180600Z 04006KT 5000 BR OVC010 14/11 Q1028 NOSIG

Closest aviation forecast (TAF) to Ellisras Matimba Airport

Forecast is more than 12 hours old.

Closest forecast is Polokwane International Airport, 97.5 nm (180.6 km) E. Retrieved 2021/05/05 07:00 UTC (13 days ago):

TAF FAPP 050600Z 0507/0518 19006KT CAVOK TX24/0512Z TN15/0518Z